This is the latest recevied weather packets stored in our database for station/object IK1PCD-11. If no packets are shown the sender has not sent any weather packets the latest 10 day(s).
| Time | Temp. | Humidity | Pressure | Rain* | Wind** | Luminosity | Snow |
|---|---|---|---|---|---|---|---|
| 1777635203 | 14.44° C | 45% | 1024.2 hPa | - | - | - | - |
| 1777634303 | 14.44° C | 45% | 1024.4 hPa | - | - | - | - |
| 1777631603 | 12.22° C | 49% | 1024.4 hPa | - | - | - | - |
| 1777630703 | 12.22° C | 48% | 1024.6 hPa | - | - | - | - |
| 1777629802 | 12.22° C | 52% | 1024.5 hPa | - | - | - | - |
| 1777628902 | 11.67° C | 49% | 1024.5 hPa | - | - | - | - |
| 1777628002 | 10.56° C | 52% | 1024.6 hPa | - | - | - | - |
| 1777627102 | 10° C | 51% | 1024.3 hPa | - | - | - | - |
| 1777626202 | 10° C | 52% | 1024.3 hPa | - | - | - | - |
| 1777625302 | 10° C | 53% | 1024 hPa | - | - | - | - |
| 1777624402 | 9.44° C | 51% | 1023.9 hPa | - | - | - | - |
| 1777623502 | 8.89° C | 51% | 1023.8 hPa | - | - | - | - |
| 1777622602 | 8.89° C | 51% | 1023.6 hPa | - | - | - | - |
| 1777621702 | 8.33° C | 53% | 1023.6 hPa | - | - | - | - |
| 1777620802 | 7.78° C | 55% | 1023.4 hPa | - | - | - | - |
| 1777617200 | 4.44° C | 71% | 1023.2 hPa | - | - | - | - |
| 1777616304 | 3.33° C | 76% | 1023.2 hPa | - | - | - | - |
| 1777615404 | 1.67° C | 81% | 1023 hPa | - | - | - | - |
| 1777614506 | 1.11° C | 83% | 1022.7 hPa | - | - | - | - |
| 1777613604 | 1.11° C | 83% | 1022.7 hPa | - | - | - | - |
| 1777612704 | 1.11° C | 82% | 1022.6 hPa | - | - | - | - |
| 1777611804 | 1.11° C | 81% | 1022.5 hPa | - | - | - | - |
| 1777610904 | 0.56° C | 80% | 1022.4 hPa | - | - | - | - |
| 1777610004 | 0.56° C | 79% | 1022.3 hPa | - | - | - | - |
| 1777609103 | 0.56° C | 79% | 1022.2 hPa | - | - | - | - |
* Rain since midnight (hover to see other rain measurements)
** Current wind speed in m/s (hover to see current wind gust speed)